sensor_id;sensor_type;location;lat;lon;timestamp;P1;durP1;ratioP1;P2;durP2;ratioP2
59338;SDS011;45117;50.960;5.500;2022-07-18T00:02:12;3.83;;;1.55;;
59338;SDS011;45117;50.960;5.500;2022-07-18T00:04:39;4.65;;;1.58;;
59338;SDS011;45117;50.960;5.500;2022-07-18T00:07:07;6.05;;;1.90;;
59338;SDS011;45117;50.960;5.500;2022-07-18T00:09:35;3.70;;;1.50;;
59338;SDS011;45117;50.960;5.500;2022-07-18T00:12:02;3.38;;;1.48;;
59338;SDS011;45117;50.960;5.500;2022-07-18T00:14:29;4.15;;;1.60;;
59338;SDS011;45117;50.960;5.500;2022-07-18T00:16:55;2.38;;;1.42;;
59338;SDS011;45117;50.960;5.500;2022-07-18T00:19:23;3.67;;;1.77;;
59338;SDS011;45117;50.960;5.500;2022-07-18T00:21:50;3.78;;;1.70;;
59338;SDS011;45117;50.960;5.500;2022-07-18T00:24:18;4.18;;;1.60;;
59338;SDS011;45117;50.960;5.500;2022-07-18T00:26:44;4.25;;;1.58;;
59338;SDS011;45117;50.960;5.500;2022-07-18T00:29:11;5.10;;;1.50;;
59338;SDS011;45117;50.960;5.500;2022-07-18T00:31:38;4.93;;;1.85;;
59338;SDS011;45117;50.960;5.500;2022-07-18T00:34:04;3.33;;;1.40;;
59338;SDS011;45117;50.960;5.500;2022-07-18T00:36:31;3.55;;;1.45;;
59338;SDS011;45117;50.960;5.500;2022-07-18T00:38:58;2.63;;;1.40;;
59338;SDS011;45117;50.960;5.500;2022-07-18T00:41:26;5.10;;;1.52;;
59338;SDS011;45117;50.960;5.500;2022-07-18T00:43:52;3.55;;;2.00;;
59338;SDS011;45117;50.960;5.500;2022-07-18T00:46:22;4.30;;;1.42;;
59338;SDS011;45117;50.960;5.500;2022-07-18T00:48:49;3.97;;;1.40;;
59338;SDS011;45117;50.960;5.500;2022-07-18T00:51:16;4.65;;;1.48;;
59338;SDS011;45117;50.960;5.500;2022-07-18T00:53:43;3.40;;;1.40;;
59338;SDS011;45117;50.960;5.500;2022-07-18T00:56:11;6.00;;;1.50;;
59338;SDS011;45117;50.960;5.500;2022-07-18T00:58:39;4.20;;;1.60;;
59338;SDS011;45117;50.960;5.500;2022-07-18T01:01:06;3.25;;;1.60;;
59338;SDS011;45117;50.960;5.500;2022-07-18T01:03:50;3.47;;;1.67;;
59338;SDS011;45117;50.960;5.500;2022-07-18T01:06:17;2.90;;;1.38;;
59338;SDS011;45117;50.960;5.500;2022-07-18T01:08:43;3.85;;;1.50;;
59338;SDS011;45117;50.960;5.500;2022-07-18T01:11:10;2.97;;;1.45;;
59338;SDS011;45117;50.960;5.500;2022-07-18T01:13:37;4.95;;;1.70;;
59338;SDS011;45117;50.960;5.500;2022-07-18T01:16:05;2.50;;;1.27;;
59338;SDS011;45117;50.960;5.500;2022-07-18T01:18:33;2.42;;;1.48;;
59338;SDS011;45117;50.960;5.500;2022-07-18T01:21:01;3.80;;;1.67;;
59338;SDS011;45117;50.960;5.500;2022-07-18T01:23:27;3.58;;;1.67;;
59338;SDS011;45117;50.960;5.500;2022-07-18T01:25:54;5.07;;;1.77;;
59338;SDS011;45117;50.960;5.500;2022-07-18T01:28:21;8.55;;;1.70;;
59338;SDS011;45117;50.960;5.500;2022-07-18T01:30:47;3.78;;;1.60;;
59338;SDS011;45117;50.960;5.500;2022-07-18T01:33:14;4.40;;;1.60;;
59338;SDS011;45117;50.960;5.500;2022-07-18T01:35:40;4.07;;;1.70;;
59338;SDS011;45117;50.960;5.500;2022-07-18T01:38:08;6.43;;;1.80;;
59338;SDS011;45117;50.960;5.500;2022-07-18T01:40:35;3.45;;;1.70;;
59338;SDS011;45117;50.960;5.500;2022-07-18T01:43:01;3.85;;;1.63;;
59338;SDS011;45117;50.960;5.500;2022-07-18T01:45:28;4.65;;;1.73;;
59338;SDS011;45117;50.960;5.500;2022-07-18T01:47:55;5.28;;;1.73;;
59338;SDS011;45117;50.960;5.500;2022-07-18T01:50:21;6.88;;;2.00;;
59338;SDS011;45117;50.960;5.500;2022-07-18T01:52:48;5.55;;;1.70;;
59338;SDS011;45117;50.960;5.500;2022-07-18T01:55:16;3.83;;;1.80;;
59338;SDS011;45117;50.960;5.500;2022-07-18T01:57:42;4.72;;;2.08;;
59338;SDS011;45117;50.960;5.500;2022-07-18T02:00:09;4.05;;;1.70;;
59338;SDS011;45117;50.960;5.500;2022-07-18T02:02:37;2.60;;;1.67;;
59338;SDS011;45117;50.960;5.500;2022-07-18T02:05:04;3.80;;;1.27;;
59338;SDS011;45117;50.960;5.500;2022-07-18T02:07:32;3.25;;;1.70;;
59338;SDS011;45117;50.960;5.500;2022-07-18T02:10:01;4.88;;;1.70;;
59338;SDS011;45117;50.960;5.500;2022-07-18T02:12:32;6.78;;;2.00;;
59338;SDS011;45117;50.960;5.500;2022-07-18T02:14:58;5.47;;;1.83;;
59338;SDS011;45117;50.960;5.500;2022-07-18T02:17:25;3.65;;;1.77;;
59338;SDS011;45117;50.960;5.500;2022-07-18T02:19:51;3.97;;;1.98;;
59338;SDS011;45117;50.960;5.500;2022-07-18T02:22:18;4.32;;;1.80;;
59338;SDS011;45117;50.960;5.500;2022-07-18T02:24:44;6.25;;;1.92;;
59338;SDS011;45117;50.960;5.500;2022-07-18T02:27:11;4.80;;;2.05;;
59338;SDS011;45117;50.960;5.500;2022-07-18T02:29:39;3.78;;;1.90;;
59338;SDS011;45117;50.960;5.500;2022-07-18T02:32:05;4.32;;;1.92;;
59338;SDS011;45117;50.960;5.500;2022-07-18T02:34:32;5.28;;;1.77;;
59338;SDS011;45117;50.960;5.500;2022-07-18T02:36:59;4.60;;;1.70;;
59338;SDS011;45117;50.960;5.500;2022-07-18T02:39:26;4.53;;;1.83;;
59338;SDS011;45117;50.960;5.500;2022-07-18T02:41:53;4.50;;;1.90;;
59338;SDS011;45117;50.960;5.500;2022-07-18T02:44:20;5.22;;;1.65;;
59338;SDS011;45117;50.960;5.500;2022-07-18T02:46:48;3.53;;;1.80;;
59338;SDS011;45117;50.960;5.500;2022-07-18T02:49:15;3.90;;;1.88;;
59338;SDS011;45117;50.960;5.500;2022-07-18T02:51:53;6.30;;;2.00;;
59338;SDS011;45117;50.960;5.500;2022-07-18T02:54:21;7.65;;;2.78;;
59338;SDS011;45117;50.960;5.500;2022-07-18T02:56:48;6.75;;;2.92;;
59338;SDS011;45117;50.960;5.500;2022-07-18T02:59:14;5.70;;;2.20;;
59338;SDS011;45117;50.960;5.500;2022-07-18T03:01:41;3.63;;;2.13;;
59338;SDS011;45117;50.960;5.500;2022-07-18T03:04:09;6.18;;;2.28;;
59338;SDS011;45117;50.960;5.500;2022-07-18T03:06:35;4.95;;;2.08;;
59338;SDS011;45117;50.960;5.500;2022-07-18T03:09:03;6.60;;;2.30;;
59338;SDS011;45117;50.960;5.500;2022-07-18T03:11:29;4.40;;;2.10;;
59338;SDS011;45117;50.960;5.500;2022-07-18T03:13:56;5.00;;;2.33;;
59338;SDS011;45117;50.960;5.500;2022-07-18T03:16:23;5.60;;;2.08;;
59338;SDS011;45117;50.960;5.500;2022-07-18T03:18:50;5.25;;;2.10;;
59338;SDS011;45117;50.960;5.500;2022-07-18T03:21:18;4.63;;;2.00;;
59338;SDS011;45117;50.960;5.500;2022-07-18T03:23:44;6.93;;;2.20;;
59338;SDS011;45117;50.960;5.500;2022-07-18T03:26:11;5.53;;;2.00;;
59338;SDS011;45117;50.960;5.500;2022-07-18T03:28:38;6.65;;;2.50;;
59338;SDS011;45117;50.960;5.500;2022-07-18T03:31:04;4.05;;;2.15;;
59338;SDS011;45117;50.960;5.500;2022-07-18T03:33:31;6.30;;;2.50;;
59338;SDS011;45117;50.960;5.500;2022-07-18T03:35:58;3.33;;;2.03;;
59338;SDS011;45117;50.960;5.500;2022-07-18T03:38:25;4.32;;;2.10;;
59338;SDS011;45117;50.960;5.500;2022-07-18T03:40:52;5.97;;;2.20;;
59338;SDS011;45117;50.960;5.500;2022-07-18T03:43:19;3.28;;;2.00;;
59338;SDS011;45117;50.960;5.500;2022-07-18T03:45:46;3.95;;;1.90;;
59338;SDS011;45117;50.960;5.500;2022-07-18T03:48:12;4.30;;;2.45;;
59338;SDS011;45117;50.960;5.500;2022-07-18T03:50:40;5.57;;;2.00;;
59338;SDS011;45117;50.960;5.500;2022-07-18T03:53:06;6.18;;;2.45;;
59338;SDS011;45117;50.960;5.500;2022-07-18T03:55:34;4.90;;;2.22;;
59338;SDS011;45117;50.960;5.500;2022-07-18T03:58:01;4.13;;;2.10;;
59338;SDS011;45117;50.960;5.500;2022-07-18T04:00:27;4.82;;;2.40;;
59338;SDS011;45117;50.960;5.500;2022-07-18T04:02:54;5.10;;;2.10;;
59338;SDS011;45117;50.960;5.500;2022-07-18T04:05:20;4.10;;;2.38;;
59338;SDS011;45117;50.960;5.500;2022-07-18T04:07:47;5.05;;;1.85;;
59338;SDS011;45117;50.960;5.500;2022-07-18T04:10:13;5.25;;;2.30;;
59338;SDS011;45117;50.960;5.500;2022-07-18T04:12:45;5.03;;;2.30;;
59338;SDS011;45117;50.960;5.500;2022-07-18T04:15:12;4.70;;;2.30;;
59338;SDS011;45117;50.960;5.500;2022-07-18T04:17:39;5.55;;;2.20;;
59338;SDS011;45117;50.960;5.500;2022-07-18T04:20:06;6.80;;;2.30;;
59338;SDS011;45117;50.960;5.500;2022-07-18T04:22:43;6.15;;;2.08;;
59338;SDS011;45117;50.960;5.500;2022-07-18T04:25:10;4.90;;;2.03;;
59338;SDS011;45117;50.960;5.500;2022-07-18T04:27:37;6.72;;;2.35;;
59338;SDS011;45117;50.960;5.500;2022-07-18T04:30:05;7.10;;;2.33;;
59338;SDS011;45117;50.960;5.500;2022-07-18T04:32:33;6.60;;;2.67;;
59338;SDS011;45117;50.960;5.500;2022-07-18T04:35:00;3.47;;;2.20;;
59338;SDS011;45117;50.960;5.500;2022-07-18T04:37:28;5.95;;;2.17;;
59338;SDS011;45117;50.960;5.500;2022-07-18T04:39:55;4.97;;;2.17;;
59338;SDS011;45117;50.960;5.500;2022-07-18T04:42:22;6.40;;;2.40;;
59338;SDS011;45117;50.960;5.500;2022-07-18T04:44:48;5.60;;;2.03;;
59338;SDS011;45117;50.960;5.500;2022-07-18T04:47:16;5.70;;;2.30;;
59338;SDS011;45117;50.960;5.500;2022-07-18T04:49:43;4.00;;;2.10;;
59338;SDS011;45117;50.960;5.500;2022-07-18T04:52:09;7.10;;;2.55;;
59338;SDS011;45117;50.960;5.500;2022-07-18T04:54:36;10.48;;;2.60;;
59338;SDS011;45117;50.960;5.500;2022-07-18T04:57:03;6.72;;;2.40;;
59338;SDS011;45117;50.960;5.500;2022-07-18T04:59:29;7.18;;;2.45;;
59338;SDS011;45117;50.960;5.500;2022-07-18T05:01:56;5.80;;;2.70;;
59338;SDS011;45117;50.960;5.500;2022-07-18T05:04:23;9.55;;;2.65;;
59338;SDS011;45117;50.960;5.500;2022-07-18T05:06:50;6.75;;;2.63;;
59338;SDS011;45117;50.960;5.500;2022-07-18T05:09:17;5.80;;;2.58;;
59338;SDS011;45117;50.960;5.500;2022-07-18T05:11:43;5.93;;;2.38;;
59338;SDS011;45117;50.960;5.500;2022-07-18T05:14:10;5.47;;;2.20;;
59338;SDS011;45117;50.960;5.500;2022-07-18T05:16:36;9.18;;;2.30;;
59338;SDS011;45117;50.960;5.500;2022-07-18T05:19:03;5.38;;;2.28;;
59338;SDS011;45117;50.960;5.500;2022-07-18T05:21:31;6.00;;;2.47;;
59338;SDS011;45117;50.960;5.500;2022-07-18T05:23:58;5.07;;;2.30;;
59338;SDS011;45117;50.960;5.500;2022-07-18T05:26:24;6.00;;;2.42;;
59338;SDS011;45117;50.960;5.500;2022-07-18T05:28:52;8.45;;;2.47;;
59338;SDS011;45117;50.960;5.500;2022-07-18T05:31:18;4.60;;;2.35;;
59338;SDS011;45117;50.960;5.500;2022-07-18T05:33:45;5.82;;;2.20;;
59338;SDS011;45117;50.960;5.500;2022-07-18T05:36:12;6.60;;;2.13;;
59338;SDS011;45117;50.960;5.500;2022-07-18T05:38:39;6.07;;;2.30;;
59338;SDS011;45117;50.960;5.500;2022-07-18T05:41:06;7.57;;;2.40;;
59338;SDS011;45117;50.960;5.500;2022-07-18T05:43:33;4.07;;;2.20;;
59338;SDS011;45117;50.960;5.500;2022-07-18T05:45:59;6.70;;;2.78;;
59338;SDS011;45117;50.960;5.500;2022-07-18T05:48:26;6.55;;;2.40;;
59338;SDS011;45117;50.960;5.500;2022-07-18T05:50:52;6.70;;;2.53;;
59338;SDS011;45117;50.960;5.500;2022-07-18T05:53:19;7.80;;;2.53;;
59338;SDS011;45117;50.960;5.500;2022-07-18T05:55:47;4.57;;;2.25;;
59338;SDS011;45117;50.960;5.500;2022-07-18T05:58:13;5.97;;;2.75;;
59338;SDS011;45117;50.960;5.500;2022-07-18T06:00:40;7.93;;;2.72;;
59338;SDS011;45117;50.960;5.500;2022-07-18T06:03:06;6.05;;;3.15;;
59338;SDS011;45117;50.960;5.500;2022-07-18T06:05:33;7.45;;;3.50;;
59338;SDS011;45117;50.960;5.500;2022-07-18T06:08:00;7.70;;;3.70;;
59338;SDS011;45117;50.960;5.500;2022-07-18T06:10:26;11.00;;;3.90;;
59338;SDS011;45117;50.960;5.500;2022-07-18T06:12:54;7.88;;;3.85;;
59338;SDS011;45117;50.960;5.500;2022-07-18T06:15:21;9.82;;;4.13;;
59338;SDS011;45117;50.960;5.500;2022-07-18T06:17:48;6.13;;;3.50;;
59338;SDS011;45117;50.960;5.500;2022-07-18T06:20:15;9.13;;;4.53;;
59338;SDS011;45117;50.960;5.500;2022-07-18T06:22:42;8.40;;;4.30;;
59338;SDS011;45117;50.960;5.500;2022-07-18T06:25:09;10.30;;;4.22;;
59338;SDS011;45117;50.960;5.500;2022-07-18T06:27:36;10.32;;;4.40;;
59338;SDS011;45117;50.960;5.500;2022-07-18T06:30:04;9.65;;;4.32;;
59338;SDS011;45117;50.960;5.500;2022-07-18T06:32:32;7.40;;;3.78;;
59338;SDS011;45117;50.960;5.500;2022-07-18T06:34:58;11.48;;;4.63;;
59338;SDS011;45117;50.960;5.500;2022-07-18T06:37:25;11.77;;;4.80;;
59338;SDS011;45117;50.960;5.500;2022-07-18T06:39:51;8.77;;;4.13;;
59338;SDS011;45117;50.960;5.500;2022-07-18T06:42:18;10.35;;;4.15;;
59338;SDS011;45117;50.960;5.500;2022-07-18T06:44:45;8.68;;;3.90;;
59338;SDS011;45117;50.960;5.500;2022-07-18T06:47:13;8.13;;;4.07;;
59338;SDS011;45117;50.960;5.500;2022-07-18T06:49:39;10.93;;;3.70;;
59338;SDS011;45117;50.960;5.500;2022-07-18T06:52:06;11.68;;;4.10;;
59338;SDS011;45117;50.960;5.500;2022-07-18T06:54:36;11.57;;;4.30;;
59338;SDS011;45117;50.960;5.500;2022-07-18T06:57:04;9.70;;;4.30;;
59338;SDS011;45117;50.960;5.500;2022-07-18T06:59:32;11.93;;;4.20;;
59338;SDS011;45117;50.960;5.500;2022-07-18T07:01:58;7.60;;;3.53;;
59338;SDS011;45117;50.960;5.500;2022-07-18T07:04:26;12.20;;;3.90;;
59338;SDS011;45117;50.960;5.500;2022-07-18T07:06:53;8.55;;;3.38;;
59338;SDS011;45117;50.960;5.500;2022-07-18T07:09:19;10.52;;;3.72;;
59338;SDS011;45117;50.960;5.500;2022-07-18T07:11:46;9.88;;;3.83;;
59338;SDS011;45117;50.960;5.500;2022-07-18T07:14:13;13.40;;;3.97;;
59338;SDS011;45117;50.960;5.500;2022-07-18T07:16:40;10.80;;;3.70;;
59338;SDS011;45117;50.960;5.500;2022-07-18T07:19:06;7.85;;;3.40;;
59338;SDS011;45117;50.960;5.500;2022-07-18T07:21:34;9.55;;;3.10;;
59338;SDS011;45117;50.960;5.500;2022-07-18T07:24:00;10.05;;;3.67;;
59338;SDS011;45117;50.960;5.500;2022-07-18T07:26:27;9.93;;;3.13;;
59338;SDS011;45117;50.960;5.500;2022-07-18T07:28:53;8.15;;;3.08;;
59338;SDS011;45117;50.960;5.500;2022-07-18T07:31:20;8.18;;;2.90;;
59338;SDS011;45117;50.960;5.500;2022-07-18T07:33:46;7.57;;;2.72;;
59338;SDS011;45117;50.960;5.500;2022-07-18T07:36:13;9.40;;;2.78;;
59338;SDS011;45117;50.960;5.500;2022-07-18T07:38:41;8.43;;;2.80;;
59338;SDS011;45117;50.960;5.500;2022-07-18T07:41:07;6.20;;;2.50;;
59338;SDS011;45117;50.960;5.500;2022-07-18T07:43:34;9.85;;;2.38;;
59338;SDS011;45117;50.960;5.500;2022-07-18T07:46:03;10.00;;;2.50;;
59338;SDS011;45117;50.960;5.500;2022-07-18T07:48:30;8.50;;;2.92;;
59338;SDS011;45117;50.960;5.500;2022-07-18T07:50:56;8.27;;;2.80;;
59338;SDS011;45117;50.960;5.500;2022-07-18T07:53:23;6.75;;;2.42;;
59338;SDS011;45117;50.960;5.500;2022-07-18T07:55:51;7.03;;;2.03;;
59338;SDS011;45117;50.960;5.500;2022-07-18T07:58:17;8.85;;;2.30;;
59338;SDS011;45117;50.960;5.500;2022-07-18T08:00:44;8.75;;;2.28;;
59338;SDS011;45117;50.960;5.500;2022-07-18T08:03:10;7.75;;;2.35;;
59338;SDS011;45117;50.960;5.500;2022-07-18T08:05:38;7.13;;;1.92;;
59338;SDS011;45117;50.960;5.500;2022-07-18T08:08:11;6.35;;;2.15;;
59338;SDS011;45117;50.960;5.500;2022-07-18T08:10:38;7.82;;;1.92;;
59338;SDS011;45117;50.960;5.500;2022-07-18T08:13:06;8.25;;;2.10;;
59338;SDS011;45117;50.960;5.500;2022-07-18T08:15:32;5.82;;;2.08;;
59338;SDS011;45117;50.960;5.500;2022-07-18T08:17:59;5.95;;;2.45;;
59338;SDS011;45117;50.960;5.500;2022-07-18T08:20:26;5.93;;;1.65;;
59338;SDS011;45117;50.960;5.500;2022-07-18T08:22:53;5.93;;;1.90;;
59338;SDS011;45117;50.960;5.500;2022-07-18T08:25:21;3.65;;;1.92;;
59338;SDS011;45117;50.960;5.500;2022-07-18T08:27:48;3.83;;;1.85;;
59338;SDS011;45117;50.960;5.500;2022-07-18T08:30:16;7.55;;;2.05;;
59338;SDS011;45117;50.960;5.500;2022-07-18T08:32:43;5.60;;;1.98;;
59338;SDS011;45117;50.960;5.500;2022-07-18T08:35:09;6.40;;;1.90;;
59338;SDS011;45117;50.960;5.500;2022-07-18T08:37:36;6.53;;;1.75;;
59338;SDS011;45117;50.960;5.500;2022-07-18T08:40:03;3.97;;;1.63;;
59338;SDS011;45117;50.960;5.500;2022-07-18T08:42:30;7.15;;;1.90;;
59338;SDS011;45117;50.960;5.500;2022-07-18T08:44:58;4.65;;;1.45;;
59338;SDS011;45117;50.960;5.500;2022-07-18T08:47:27;8.68;;;1.95;;
59338;SDS011;45117;50.960;5.500;2022-07-18T08:49:55;6.18;;;1.60;;
59338;SDS011;45117;50.960;5.500;2022-07-18T08:52:21;4.32;;;1.50;;
59338;SDS011;45117;50.960;5.500;2022-07-18T08:54:49;6.07;;;1.65;;
59338;SDS011;45117;50.960;5.500;2022-07-18T08:57:15;5.60;;;1.30;;
59338;SDS011;45117;50.960;5.500;2022-07-18T08:59:42;3.78;;;1.45;;
59338;SDS011;45117;50.960;5.500;2022-07-18T09:02:09;6.38;;;1.33;;
59338;SDS011;45117;50.960;5.500;2022-07-18T09:04:38;6.93;;;1.48;;
59338;SDS011;45117;50.960;5.500;2022-07-18T09:07:05;3.72;;;1.35;;
59338;SDS011;45117;50.960;5.500;2022-07-18T09:09:34;3.83;;;1.10;;
59338;SDS011;45117;50.960;5.500;2022-07-18T09:12:03;2.90;;;1.02;;
59338;SDS011;45117;50.960;5.500;2022-07-18T09:14:32;4.70;;;1.30;;
59338;SDS011;45117;50.960;5.500;2022-07-18T09:17:04;3.08;;;1.10;;
59338;SDS011;45117;50.960;5.500;2022-07-18T09:19:33;4.63;;;1.20;;
59338;SDS011;45117;50.960;5.500;2022-07-18T09:22:14;2.10;;;1.00;;
59338;SDS011;45117;50.960;5.500;2022-07-18T09:24:48;4.22;;;1.30;;
59338;SDS011;45117;50.960;5.500;2022-07-18T09:27:23;1.33;;;0.90;;
59338;SDS011;45117;50.960;5.500;2022-07-18T09:30:15;4.00;;;1.60;;
59338;SDS011;45117;50.960;5.500;2022-07-18T09:32:44;2.53;;;0.90;;
59338;SDS011;45117;50.960;5.500;2022-07-18T09:35:12;3.88;;;1.15;;
59338;SDS011;45117;50.960;5.500;2022-07-18T09:37:42;1.55;;;1.00;;
59338;SDS011;45117;50.960;5.500;2022-07-18T09:40:19;1.73;;;1.05;;
59338;SDS011;45117;50.960;5.500;2022-07-18T09:42:48;1.50;;;0.93;;
59338;SDS011;45117;50.960;5.500;2022-07-18T09:45:15;2.47;;;1.00;;
59338;SDS011;45117;50.960;5.500;2022-07-18T09:47:49;1.52;;;0.70;;
59338;SDS011;45117;50.960;5.500;2022-07-18T09:50:20;2.55;;;1.17;;
59338;SDS011;45117;50.960;5.500;2022-07-18T09:53:00;2.33;;;0.80;;
59338;SDS011;45117;50.960;5.500;2022-07-18T09:55:29;3.03;;;0.93;;
59338;SDS011;45117;50.960;5.500;2022-07-18T09:57:56;1.75;;;0.80;;
59338;SDS011;45117;50.960;5.500;2022-07-18T10:00:26;1.95;;;0.68;;
59338;SDS011;45117;50.960;5.500;2022-07-18T10:02:54;4.40;;;1.20;;
59338;SDS011;45117;50.960;5.500;2022-07-18T10:05:20;2.60;;;0.80;;
59338;SDS011;45117;50.960;5.500;2022-07-18T10:07:47;1.83;;;0.80;;
59338;SDS011;45117;50.960;5.500;2022-07-18T10:10:15;2.30;;;0.90;;
59338;SDS011;45117;50.960;5.500;2022-07-18T10:12:42;1.42;;;0.90;;
59338;SDS011;45117;50.960;5.500;2022-07-18T10:15:09;1.67;;;0.90;;
59338;SDS011;45117;50.960;5.500;2022-07-18T10:17:36;2.65;;;0.70;;
59338;SDS011;45117;50.960;5.500;2022-07-18T10:20:03;2.25;;;0.90;;
59338;SDS011;45117;50.960;5.500;2022-07-18T10:22:33;2.83;;;0.90;;
59338;SDS011;45117;50.960;5.500;2022-07-18T10:25:03;2.55;;;1.02;;
59338;SDS011;45117;50.960;5.500;2022-07-18T10:30:17;2.67;;;0.90;;
59338;SDS011;45117;50.960;5.500;2022-07-18T10:32:54;2.55;;;0.93;;
59338;SDS011;45117;50.960;5.500;2022-07-18T10:35:21;3.83;;;1.02;;
59338;SDS011;45117;50.960;5.500;2022-07-18T10:38:32;2.25;;;0.90;;
59338;SDS011;45117;50.960;5.500;2022-07-18T10:41:03;2.25;;;0.77;;
59338;SDS011;45117;50.960;5.500;2022-07-18T10:43:32;1.60;;;0.80;;
59338;SDS011;45117;50.960;5.500;2022-07-18T10:46:04;2.33;;;0.88;;
59338;SDS011;45117;50.960;5.500;2022-07-18T10:51:29;3.08;;;1.00;;
59338;SDS011;45117;50.960;5.500;2022-07-18T10:54:03;1.15;;;0.80;;
59338;SDS011;45117;50.960;5.500;2022-07-18T10:59:37;1.35;;;0.70;;
59338;SDS011;45117;50.960;5.500;2022-07-18T11:02:29;1.38;;;0.85;;
59338;SDS011;45117;50.960;5.500;2022-07-18T11:04:57;4.10;;;0.82;;
59338;SDS011;45117;50.960;5.500;2022-07-18T11:07:24;3.95;;;1.00;;
59338;SDS011;45117;50.960;5.500;2022-07-18T11:09:50;3.50;;;1.00;;
59338;SDS011;45117;50.960;5.500;2022-07-18T11:12:18;1.73;;;0.68;;
59338;SDS011;45117;50.960;5.500;2022-07-18T11:15:00;1.30;;;0.70;;
59338;SDS011;45117;50.960;5.500;2022-07-18T11:20:29;2.22;;;0.90;;
59338;SDS011;45117;50.960;5.500;2022-07-18T11:23:03;2.20;;;0.80;;
59338;SDS011;45117;50.960;5.500;2022-07-18T11:25:31;1.92;;;1.02;;
59338;SDS011;45117;50.960;5.500;2022-07-18T11:27:57;2.80;;;0.90;;
59338;SDS011;45117;50.960;5.500;2022-07-18T11:30:25;1.65;;;1.00;;
59338;SDS011;45117;50.960;5.500;2022-07-18T11:32:52;2.83;;;0.70;;
59338;SDS011;45117;50.960;5.500;2022-07-18T11:35:22;2.58;;;0.93;;
59338;SDS011;45117;50.960;5.500;2022-07-18T11:37:51;2.05;;;0.85;;
59338;SDS011;45117;50.960;5.500;2022-07-18T11:40:18;0.93;;;0.65;;
59338;SDS011;45117;50.960;5.500;2022-07-18T11:42:45;1.73;;;0.88;;
59338;SDS011;45117;50.960;5.500;2022-07-18T11:45:13;2.83;;;0.93;;
59338;SDS011;45117;50.960;5.500;2022-07-18T11:47:52;1.23;;;0.90;;
59338;SDS011;45117;50.960;5.500;2022-07-18T11:50:26;2.28;;;0.75;;
59338;SDS011;45117;50.960;5.500;2022-07-18T11:53:01;1.77;;;0.93;;
59338;SDS011;45117;50.960;5.500;2022-07-18T11:55:33;1.20;;;0.80;;
59338;SDS011;45117;50.960;5.500;2022-07-18T11:58:11;2.83;;;0.90;;
59338;SDS011;45117;50.960;5.500;2022-07-18T12:00:39;2.33;;;1.08;;
59338;SDS011;45117;50.960;5.500;2022-07-18T12:03:09;1.75;;;0.90;;
59338;SDS011;45117;50.960;5.500;2022-07-18T12:05:39;1.50;;;0.90;;
59338;SDS011;45117;50.960;5.500;2022-07-18T12:08:26;1.92;;;1.00;;
59338;SDS011;45117;50.960;5.500;2022-07-18T12:11:04;1.30;;;0.75;;
59338;SDS011;45117;50.960;5.500;2022-07-18T12:13:43;1.70;;;0.80;;
59338;SDS011;45117;50.960;5.500;2022-07-18T12:19:05;4.30;;;1.00;;
59338;SDS011;45117;50.960;5.500;2022-07-18T12:21:39;1.65;;;0.88;;
59338;SDS011;45117;50.960;5.500;2022-07-18T12:24:20;2.53;;;0.80;;
59338;SDS011;45117;50.960;5.500;2022-07-18T12:26:56;1.63;;;0.90;;
59338;SDS011;45117;50.960;5.500;2022-07-18T12:32:40;5.57;;;1.40;;
59338;SDS011;45117;50.960;5.500;2022-07-18T12:35:10;2.00;;;0.70;;
59338;SDS011;45117;50.960;5.500;2022-07-18T12:37:38;2.17;;;1.10;;
59338;SDS011;45117;50.960;5.500;2022-07-18T12:40:06;2.78;;;0.93;;
59338;SDS011;45117;50.960;5.500;2022-07-18T12:42:35;1.55;;;0.90;;
59338;SDS011;45117;50.960;5.500;2022-07-18T12:45:03;2.45;;;0.90;;
59338;SDS011;45117;50.960;5.500;2022-07-18T12:47:31;2.03;;;0.85;;
59338;SDS011;45117;50.960;5.500;2022-07-18T12:49:58;2.10;;;1.08;;
59338;SDS011;45117;50.960;5.500;2022-07-18T12:52:26;1.27;;;1.00;;
59338;SDS011;45117;50.960;5.500;2022-07-18T12:54:52;2.45;;;0.93;;
59338;SDS011;45117;50.960;5.500;2022-07-18T12:57:19;1.75;;;0.82;;
59338;SDS011;45117;50.960;5.500;2022-07-18T12:59:46;2.22;;;0.90;;
59338;SDS011;45117;50.960;5.500;2022-07-18T13:02:12;1.30;;;0.70;;
59338;SDS011;45117;50.960;5.500;2022-07-18T13:04:40;2.58;;;0.90;;
59338;SDS011;45117;50.960;5.500;2022-07-18T13:07:18;1.88;;;0.90;;
59338;SDS011;45117;50.960;5.500;2022-07-18T13:09:46;2.08;;;0.95;;
59338;SDS011;45117;50.960;5.500;2022-07-18T13:12:12;1.83;;;0.80;;
59338;SDS011;45117;50.960;5.500;2022-07-18T13:14:39;2.15;;;0.90;;
59338;SDS011;45117;50.960;5.500;2022-07-18T13:17:06;1.13;;;0.82;;
59338;SDS011;45117;50.960;5.500;2022-07-18T13:19:33;3.08;;;0.80;;
59338;SDS011;45117;50.960;5.500;2022-07-18T13:21:59;1.85;;;0.98;;
59338;SDS011;45117;50.960;5.500;2022-07-18T13:24:26;1.40;;;0.90;;
59338;SDS011;45117;50.960;5.500;2022-07-18T13:26:54;2.03;;;0.82;;
59338;SDS011;45117;50.960;5.500;2022-07-18T13:29:21;1.95;;;1.00;;
59338;SDS011;45117;50.960;5.500;2022-07-18T13:31:47;1.10;;;0.77;;
59338;SDS011;45117;50.960;5.500;2022-07-18T13:34:16;2.22;;;0.95;;
59338;SDS011;45117;50.960;5.500;2022-07-18T13:36:42;1.20;;;0.80;;
59338;SDS011;45117;50.960;5.500;2022-07-18T13:39:09;2.85;;;0.90;;
59338;SDS011;45117;50.960;5.500;2022-07-18T13:41:36;2.05;;;0.90;;
59338;SDS011;45117;50.960;5.500;2022-07-18T13:44:04;1.10;;;0.85;;
59338;SDS011;45117;50.960;5.500;2022-07-18T13:46:30;1.83;;;0.80;;
59338;SDS011;45117;50.960;5.500;2022-07-18T13:48:57;2.38;;;1.00;;
59338;SDS011;45117;50.960;5.500;2022-07-18T13:51:23;1.38;;;0.90;;
59338;SDS011;45117;50.960;5.500;2022-07-18T13:53:50;1.00;;;0.85;;
59338;SDS011;45117;50.960;5.500;2022-07-18T13:56:16;1.60;;;0.80;;
59338;SDS011;45117;50.960;5.500;2022-07-18T13:58:43;1.75;;;0.75;;
59338;SDS011;45117;50.960;5.500;2022-07-18T14:01:12;1.67;;;0.90;;
59338;SDS011;45117;50.960;5.500;2022-07-18T14:03:39;1.33;;;1.17;;
59338;SDS011;45117;50.960;5.500;2022-07-18T14:06:06;2.75;;;0.93;;
59338;SDS011;45117;50.960;5.500;2022-07-18T14:08:32;3.13;;;1.00;;
59338;SDS011;45117;50.960;5.500;2022-07-18T14:10:59;1.90;;;1.02;;
59338;SDS011;45117;50.960;5.500;2022-07-18T14:13:25;1.45;;;1.00;;
59338;SDS011;45117;50.960;5.500;2022-07-18T14:15:52;2.35;;;1.10;;
59338;SDS011;45117;50.960;5.500;2022-07-18T14:18:20;1.25;;;0.90;;
59338;SDS011;45117;50.960;5.500;2022-07-18T14:20:46;1.52;;;0.90;;
59338;SDS011;45117;50.960;5.500;2022-07-18T14:23:13;1.95;;;0.82;;
59338;SDS011;45117;50.960;5.500;2022-07-18T14:25:39;2.78;;;1.13;;
59338;SDS011;45117;50.960;5.500;2022-07-18T14:28:06;2.92;;;1.00;;
59338;SDS011;45117;50.960;5.500;2022-07-18T14:30:32;1.95;;;0.95;;
59338;SDS011;45117;50.960;5.500;2022-07-18T14:33:00;1.67;;;0.88;;
59338;SDS011;45117;50.960;5.500;2022-07-18T14:35:28;2.90;;;1.08;;
59338;SDS011;45117;50.960;5.500;2022-07-18T14:37:54;1.50;;;1.00;;
59338;SDS011;45117;50.960;5.500;2022-07-18T14:40:21;1.75;;;1.00;;
59338;SDS011;45117;50.960;5.500;2022-07-18T14:42:47;2.67;;;0.85;;
59338;SDS011;45117;50.960;5.500;2022-07-18T14:45:15;1.65;;;0.95;;
59338;SDS011;45117;50.960;5.500;2022-07-18T14:47:42;1.20;;;0.80;;
59338;SDS011;45117;50.960;5.500;2022-07-18T14:50:09;1.13;;;0.70;;
59338;SDS011;45117;50.960;5.500;2022-07-18T14:52:37;3.70;;;1.00;;
59338;SDS011;45117;50.960;5.500;2022-07-18T14:55:05;2.63;;;1.00;;
59338;SDS011;45117;50.960;5.500;2022-07-18T14:57:32;1.27;;;0.90;;
59338;SDS011;45117;50.960;5.500;2022-07-18T14:59:59;2.03;;;0.90;;
59338;SDS011;45117;50.960;5.500;2022-07-18T15:02:26;2.83;;;0.95;;
59338;SDS011;45117;50.960;5.500;2022-07-18T15:04:53;1.30;;;1.02;;
59338;SDS011;45117;50.960;5.500;2022-07-18T15:07:19;1.33;;;0.80;;
59338;SDS011;45117;50.960;5.500;2022-07-18T15:09:47;2.10;;;0.95;;
59338;SDS011;45117;50.960;5.500;2022-07-18T15:12:14;2.25;;;1.05;;